Search for airport 
image banner adimage banner adimage banner ad
image banner ad

KRBL - Red Bluff Muni

Located in Red Bluff, United States

ICAO - RBL, IATA -

Data provided by Airmate  

General information

Coordinates: N40°9'1" W122°15'8"
Elevation is 352 feet MSL.
Magnetic variation is 17° East
View others Airports in California

Operational data

Special qualification required
Current time UTC:
Current local time:
Weather
METAR: KRBL 290754Z AUTO 00000KT 10SM CLR 28/11 A2988 RMK AO2 SLP115 T02780111 404170194
TAF: KRBL 290520Z 2906/3006 VRB04KT P6SM FEW250 FM292200 16010KT P6SM SCT250 FM300400 VRB04KT P6SM SCT250
View NOTAMs / SUP AIP / TFR affecting this airport [VIEW]
Communications frequencies: [VIEW]

Runways:

RWY identifierQFULength (ft)Width (ft)SurfaceLDA (ft)
15168°5431100ASPH
33348°5431100ASPH

Airport contact information

Address: Red Bluff United States

Satellite view of KRBL